createdAt,value
2023-04-08T00:01:36.503Z,13.90
2023-04-08T00:04:04.689Z,13.20
2023-04-08T00:06:33.035Z,11.70
2023-04-08T00:09:01.037Z,11.50
2023-04-08T00:11:29.140Z,12.00
2023-04-08T00:13:57.269Z,11.80
2023-04-08T00:16:25.203Z,12.20
2023-04-08T00:18:53.302Z,12.50
2023-04-08T00:21:21.333Z,12.40
2023-04-08T00:23:49.634Z,11.30
2023-04-08T00:26:17.513Z,11.90
2023-04-08T00:28:45.535Z,12.60
2023-04-08T00:31:13.440Z,13.00
2023-04-08T00:33:41.273Z,12.80
2023-04-08T00:36:09.164Z,13.10
2023-04-08T00:38:37.005Z,14.50
2023-04-08T00:41:04.864Z,13.30
2023-04-08T00:43:32.702Z,14.20
2023-04-08T00:46:00.587Z,15.20
2023-04-08T00:48:29.829Z,15.40
2023-04-08T00:50:58.874Z,14.90
2023-04-08T00:53:26.619Z,15.10
2023-04-08T00:55:54.480Z,14.00
2023-04-08T00:58:22.947Z,16.30
2023-04-08T01:01:03.924Z,15.70
2023-04-08T01:03:58.844Z,15.60
2023-04-08T01:06:42.506Z,15.90
2023-04-08T01:09:11.672Z,15.50
2023-04-08T01:11:44.120Z,16.30
2023-04-08T01:14:20.593Z,15.40
2023-04-08T01:16:48.406Z,14.70
2023-04-08T01:19:38.953Z,15.00
2023-04-08T01:22:09.507Z,16.50
2023-04-08T01:24:40.383Z,16.80
2023-04-08T01:27:09.044Z,15.40
2023-04-08T01:29:37.726Z,16.70
2023-04-08T01:32:06.760Z,16.60
2023-04-08T01:34:36.615Z,16.70
2023-04-08T01:37:04.762Z,17.00
2023-04-08T01:39:33.868Z,17.00
2023-04-08T01:42:02.678Z,16.90
2023-04-08T01:44:31.095Z,16.00
2023-04-08T01:46:59.506Z,15.80
2023-04-08T01:49:27.549Z,16.00
2023-04-08T01:51:57.095Z,15.00
2023-04-08T01:54:25.039Z,16.10
2023-04-08T01:56:54.749Z,15.40
2023-04-08T01:59:23.411Z,18.60
2023-04-08T02:01:52.255Z,17.10
2023-04-08T02:04:20.275Z,16.10
2023-04-08T02:06:48.333Z,16.10
2023-04-08T02:09:16.125Z,16.00
2023-04-08T02:11:43.884Z,16.90
2023-04-08T02:14:11.761Z,19.10
2023-04-08T02:16:58.786Z,19.60
2023-04-08T02:19:47.057Z,18.50
2023-04-08T02:22:32.154Z,16.40
2023-04-08T02:25:01.318Z,17.50
2023-04-08T02:27:29.948Z,20.50
2023-04-08T02:29:58.133Z,23.20
2023-04-08T02:32:26.651Z,22.80
2023-04-08T02:34:55.270Z,20.50
2023-04-08T02:37:23.342Z,18.80
2023-04-08T02:39:51.819Z,19.60
2023-04-08T02:42:19.670Z,18.50
2023-04-08T02:44:47.577Z,18.00
2023-04-08T02:47:15.415Z,19.30
2023-04-08T02:49:43.160Z,19.50
2023-04-08T02:52:10.927Z,19.30
2023-04-08T02:54:38.741Z,17.60
2023-04-08T02:57:06.465Z,20.40
2023-04-08T02:59:34.316Z,23.00
2023-04-08T03:02:02.215Z,18.80
2023-04-08T03:04:30.123Z,17.10
2023-04-08T03:06:57.944Z,16.90
2023-04-08T03:09:25.997Z,16.30
2023-04-08T03:11:55.074Z,17.00
2023-04-08T03:14:23.022Z,17.60
2023-04-08T03:16:51.012Z,17.50
2023-04-08T03:19:18.816Z,16.40
2023-04-08T03:21:46.623Z,16.60
2023-04-08T03:24:14.522Z,16.70
2023-04-08T03:26:42.322Z,15.80
2023-04-08T03:29:10.430Z,16.50
2023-04-08T03:31:38.479Z,15.70
2023-04-08T03:34:06.335Z,15.50
2023-04-08T03:36:34.142Z,16.70
2023-04-08T03:39:03.825Z,15.70
2023-04-08T03:41:31.758Z,17.50
2023-04-08T03:43:59.568Z,18.20
2023-04-08T03:46:27.653Z,17.00
2023-04-08T03:48:55.581Z,18.00
2023-04-08T03:51:23.707Z,17.30
2023-04-08T03:53:51.591Z,16.20
2023-04-08T03:56:19.345Z,15.80
2023-04-08T03:58:47.162Z,15.20
2023-04-08T04:01:15.010Z,17.10
2023-04-08T04:03:42.930Z,17.80
2023-04-08T04:06:10.849Z,19.90
2023-04-08T04:08:38.682Z,22.20
2023-04-08T04:11:06.453Z,19.70
2023-04-08T04:13:34.299Z,19.30
2023-04-08T04:16:02.102Z,17.70
2023-04-08T04:18:29.940Z,18.80
2023-04-08T04:20:57.806Z,20.20
2023-04-08T04:23:26.015Z,20.10
2023-04-08T04:25:53.826Z,18.10
2023-04-08T04:28:21.655Z,16.70
2023-04-08T04:30:49.452Z,17.10
2023-04-08T04:33:17.318Z,18.20
2023-04-08T04:35:45.510Z,16.20
2023-04-08T04:38:13.640Z,17.30
2023-04-08T04:40:41.595Z,18.50
2023-04-08T04:43:09.825Z,23.10
2023-04-08T04:45:37.690Z,23.70
2023-04-08T04:48:05.744Z,21.40
2023-04-08T04:50:34.087Z,17.90
2023-04-08T04:53:01.882Z,17.20
2023-04-08T04:55:29.731Z,17.30
2023-04-08T04:57:57.494Z,17.30
2023-04-08T05:00:25.425Z,17.50
2023-04-08T05:02:53.494Z,17.40
2023-04-08T05:05:21.635Z,18.80
2023-04-08T05:07:49.530Z,23.20
2023-04-08T05:10:17.426Z,21.80
2023-04-08T05:12:45.442Z,17.60
2023-04-08T05:15:13.300Z,17.70
2023-04-08T05:17:41.351Z,18.30
2023-04-08T05:20:09.541Z,18.40
2023-04-08T05:22:37.478Z,18.80
2023-04-08T05:25:06.544Z,18.20
2023-04-08T05:27:34.359Z,23.80
2023-04-08T05:30:02.214Z,24.60
2023-04-08T05:32:30.532Z,23.40
2023-04-08T05:34:58.306Z,19.00
2023-04-08T05:37:26.223Z,17.50
2023-04-08T05:39:54.141Z,17.10
2023-04-08T05:42:22.439Z,23.00
2023-04-08T05:44:50.525Z,25.40
2023-04-08T05:48:54.535Z,23.10
2023-04-08T05:51:23.021Z,20.90
2023-04-08T05:53:51.542Z,18.90
2023-04-08T05:56:19.267Z,20.50
2023-04-08T05:58:47.301Z,18.80
2023-04-08T06:01:15.916Z,18.60
2023-04-08T06:03:44.187Z,20.50
2023-04-08T06:06:12.456Z,20.90
2023-04-08T06:08:41.210Z,25.60
2023-04-08T06:11:09.400Z,21.70
2023-04-08T06:13:38.474Z,20.00
2023-04-08T06:16:20.317Z,20.40
2023-04-08T06:18:49.300Z,17.80
2023-04-08T06:21:17.367Z,18.90
2023-04-08T06:23:45.417Z,20.80
2023-04-08T06:26:13.420Z,23.30
2023-04-08T06:28:41.411Z,21.90
2023-04-08T06:31:09.296Z,21.40
2023-04-08T06:33:37.142Z,20.70
2023-04-08T06:36:07.436Z,20.00
2023-04-08T06:38:35.680Z,21.70
2023-04-08T06:41:05.980Z,26.90
2023-04-08T06:43:35.577Z,19.30
2023-04-08T06:46:03.999Z,18.00
2023-04-08T06:48:32.045Z,18.00
2023-04-08T06:51:01.441Z,20.80
2023-04-08T06:53:30.886Z,19.70
2023-04-08T06:55:58.825Z,18.30
2023-04-08T06:58:27.478Z,19.90
2023-04-08T07:00:58.783Z,17.90
2023-04-08T07:03:27.135Z,18.50
2023-04-08T07:05:55.280Z,18.40
2023-04-08T07:08:23.240Z,17.00
2023-04-08T07:10:54.105Z,14.80
2023-04-08T07:13:22.727Z,15.40
2023-04-08T07:15:52.914Z,16.80
2023-04-08T07:18:21.820Z,14.90
2023-04-08T07:20:57.875Z,15.50
2023-04-08T07:23:25.792Z,13.70
2023-04-08T07:25:57.115Z,13.40
2023-04-08T07:28:25.156Z,13.70
2023-04-08T07:30:53.160Z,14.30
2023-04-08T07:33:30.703Z,13.20
2023-04-08T07:36:01.031Z,12.10
2023-04-08T07:38:29.221Z,16.10
2023-04-08T07:40:57.355Z,14.60
2023-04-08T07:43:25.606Z,13.20
2023-04-08T07:45:53.455Z,11.60
2023-04-08T07:48:21.389Z,12.90
2023-04-08T07:51:10.029Z,11.20
2023-04-08T07:53:44.794Z,10.50
2023-04-08T07:56:16.350Z,10.70
2023-04-08T07:58:45.134Z,10.90
2023-04-08T08:01:26.742Z,12.60
2023-04-08T08:04:01.371Z,11.30
2023-04-08T08:09:16.670Z,12.10
2023-04-08T08:12:10.656Z,13.10
2023-04-08T08:14:41.698Z,11.40
2023-04-08T08:17:09.730Z,11.80
2023-04-08T08:19:37.548Z,11.90
2023-04-08T08:22:05.533Z,11.80
2023-04-08T08:24:33.439Z,13.10
2023-04-08T08:27:03.005Z,11.90
2023-04-08T08:29:31.131Z,13.50
2023-04-08T08:31:59.140Z,14.00
2023-04-08T08:34:27.209Z,15.20
2023-04-08T08:37:01.750Z,15.90
2023-04-08T08:39:29.733Z,15.20
2023-04-08T08:42:01.098Z,13.50
2023-04-08T08:44:30.869Z,14.50
2023-04-08T08:46:58.872Z,15.30
2023-04-08T08:49:27.456Z,13.30
2023-04-08T08:51:55.644Z,14.10
2023-04-08T08:54:24.049Z,13.60
2023-04-08T08:56:52.183Z,14.50
2023-04-08T08:59:20.105Z,14.60
2023-04-08T09:01:48.159Z,15.10
2023-04-08T09:04:20.879Z,15.10
2023-04-08T09:06:52.009Z,15.90
2023-04-08T09:09:20.455Z,15.70
2023-04-08T09:11:48.617Z,15.80
2023-04-08T09:14:29.179Z,13.40
2023-04-08T09:17:01.737Z,16.20
2023-04-08T09:19:32.095Z,16.20
2023-04-08T09:27:06.828Z,17.40
2023-04-08T09:29:37.454Z,18.50
2023-04-08T09:32:07.941Z,16.80
2023-04-08T09:34:36.808Z,18.70
2023-04-08T09:37:04.875Z,19.80
2023-04-08T09:39:32.997Z,18.70
2023-04-08T09:42:04.941Z,17.90
2023-04-08T09:44:33.363Z,18.10
2023-04-08T09:47:17.920Z,20.60
2023-04-08T09:49:58.715Z,19.20
2023-04-08T09:52:46.128Z,17.60
2023-04-08T09:55:17.875Z,20.40
2023-04-08T09:58:12.857Z,18.10
2023-04-08T10:00:50.934Z,19.50
2023-04-08T10:03:25.247Z,24.00
2023-04-08T10:05:56.436Z,22.40
2023-04-08T10:08:28.577Z,19.70
2023-04-08T10:10:59.268Z,20.40
2023-04-08T10:14:07.992Z,19.90
2023-04-08T10:16:48.062Z,21.30
2023-04-08T10:19:40.574Z,21.30
2023-04-08T10:22:34.018Z,20.00
2023-04-08T10:25:32.912Z,19.60
2023-04-08T10:28:22.736Z,21.60
2023-04-08T10:30:58.160Z,21.70
2023-04-08T10:33:40.016Z,21.40
2023-04-08T10:38:42.874Z,19.70
2023-04-08T10:41:14.378Z,20.50
2023-04-08T10:43:42.461Z,18.80
2023-04-08T10:46:13.600Z,20.60
2023-04-08T10:48:41.473Z,23.00
2023-04-08T10:51:09.743Z,23.80
2023-04-08T10:53:42.063Z,18.80
2023-04-08T10:56:15.787Z,20.90
2023-04-08T10:58:54.908Z,19.40
2023-04-08T11:01:23.345Z,18.50
2023-04-08T11:03:51.702Z,18.70
2023-04-08T11:06:20.160Z,20.50
2023-04-08T11:08:48.263Z,17.60
2023-04-08T11:11:16.350Z,18.20
2023-04-08T11:13:53.639Z,16.60
2023-04-08T11:16:28.714Z,20.60
2023-04-08T11:18:57.087Z,22.20
2023-04-08T11:21:32.546Z,18.70
2023-04-08T11:24:00.614Z,18.50
2023-04-08T11:26:28.817Z,20.20
2023-04-08T11:28:57.570Z,18.80
2023-04-08T11:31:25.724Z,21.80
2023-04-08T11:33:58.514Z,18.80
2023-04-08T11:36:30.757Z,21.60
2023-04-08T11:41:38.506Z,31.00
2023-04-08T11:44:07.402Z,23.60
2023-04-08T11:46:37.570Z,18.50
2023-04-08T11:49:08.347Z,18.60
2023-04-08T11:51:59.748Z,22.90
2023-04-08T11:54:32.791Z,21.00
2023-04-08T11:57:03.134Z,21.10
2023-04-08T11:59:31.668Z,19.20
2023-04-08T12:02:00.418Z,18.10
2023-04-08T12:04:28.947Z,16.90
2023-04-08T12:06:58.524Z,16.30
2023-04-08T12:09:27.412Z,18.80
2023-04-08T12:11:57.665Z,15.90
2023-04-08T12:14:28.194Z,16.50
2023-04-08T12:16:56.747Z,17.40
2023-04-08T12:19:24.734Z,16.40
2023-04-08T12:21:53.254Z,16.40
2023-04-08T12:24:21.510Z,17.20
2023-04-08T12:26:49.378Z,16.90
2023-04-08T12:29:17.479Z,18.00
2023-04-08T12:31:45.877Z,17.40
2023-04-08T12:34:14.101Z,17.20
2023-04-08T12:36:42.083Z,16.10
2023-04-08T12:39:10.153Z,16.80
2023-04-08T12:41:38.092Z,16.00
2023-04-08T12:44:06.777Z,15.60
2023-04-08T12:46:34.696Z,15.80
2023-04-08T12:49:05.243Z,17.00
2023-04-08T12:51:33.855Z,15.30
2023-04-08T12:54:04.257Z,15.90
2023-04-08T12:56:33.234Z,16.30
2023-04-08T12:59:01.559Z,15.30
2023-04-08T13:01:31.039Z,15.40
2023-04-08T13:03:59.461Z,15.10
2023-04-08T13:06:28.544Z,15.50
2023-04-08T13:08:56.911Z,15.10
2023-04-08T13:11:25.449Z,14.10
2023-04-08T13:13:53.671Z,15.00
2023-04-08T13:16:22.250Z,14.80
2023-04-08T13:18:50.691Z,15.20
2023-04-08T13:21:18.954Z,12.60
2023-04-08T13:23:54.498Z,19.90
2023-04-08T13:26:22.601Z,14.50
2023-04-08T13:28:57.626Z,14.30
2023-04-08T13:31:26.606Z,13.10
2023-04-08T13:33:57.877Z,12.50
2023-04-08T13:36:28.892Z,14.90
2023-04-08T13:38:57.467Z,14.00
2023-04-08T13:41:28.986Z,13.10
2023-04-08T13:46:39.735Z,13.10
2023-04-08T13:49:07.679Z,12.80
2023-04-08T13:51:35.903Z,11.90
2023-04-08T13:54:04.399Z,15.30
2023-04-08T13:56:32.535Z,16.60
2023-04-08T13:59:00.944Z,22.90
2023-04-08T14:01:30.016Z,15.90
2023-04-08T14:04:00.989Z,17.50
2023-04-08T14:06:29.164Z,16.00
2023-04-08T14:08:57.144Z,15.00
2023-04-08T14:11:25.023Z,13.90
2023-04-08T14:13:53.142Z,17.10
2023-04-08T14:16:21.705Z,15.00
2023-04-08T14:18:51.480Z,13.30
2023-04-08T14:21:20.204Z,13.20
2023-04-08T14:23:48.881Z,13.60
2023-04-08T14:26:17.365Z,13.70
2023-04-08T14:28:45.493Z,14.70
2023-04-08T14:31:27.922Z,12.50
2023-04-08T14:34:05.061Z,12.50
2023-04-08T14:36:35.749Z,12.00
2023-04-08T14:39:04.466Z,11.60
2023-04-08T14:41:32.381Z,12.30
2023-04-08T14:44:00.589Z,12.70
2023-04-08T14:46:29.417Z,12.40
2023-04-08T14:48:58.848Z,12.00
2023-04-08T14:51:27.206Z,12.60
2023-04-08T14:53:55.460Z,12.00
2023-04-08T14:56:23.352Z,11.70
2023-04-08T14:58:51.572Z,12.20
2023-04-08T15:01:19.774Z,16.00
2023-04-08T15:03:48.030Z,13.70
2023-04-08T15:06:18.615Z,11.80
2023-04-08T15:08:46.620Z,12.90
2023-04-08T15:11:14.634Z,14.30
2023-04-08T15:13:42.567Z,13.60
2023-04-08T15:16:10.394Z,12.90
2023-04-08T15:18:38.799Z,12.80
2023-04-08T15:21:06.608Z,13.70
2023-04-08T15:23:34.606Z,13.30
2023-04-08T15:26:02.456Z,12.50
2023-04-08T15:28:33.556Z,13.20
2023-04-08T15:31:01.852Z,13.20
2023-04-08T15:33:30.186Z,13.00
2023-04-08T15:36:03.783Z,12.30
2023-04-08T15:38:33.727Z,12.40
2023-04-08T15:41:01.698Z,12.40
2023-04-08T15:43:30.572Z,13.70
2023-04-08T15:46:01.454Z,12.90
2023-04-08T15:48:29.357Z,12.60
2023-04-08T15:50:57.305Z,12.50
2023-04-08T15:53:25.207Z,17.20
2023-04-08T15:55:53.053Z,13.70
2023-04-08T15:58:21.279Z,13.90
2023-04-08T16:00:49.525Z,15.30
2023-04-08T16:03:17.522Z,15.70
2023-04-08T16:05:45.504Z,15.20
2023-04-08T16:08:13.906Z,15.30
2023-04-08T16:10:41.879Z,14.10
2023-04-08T16:13:09.780Z,17.00
2023-04-08T16:15:38.256Z,17.10
2023-04-08T16:18:08.025Z,15.20
2023-04-08T16:20:39.395Z,16.40
2023-04-08T16:23:07.642Z,18.40
2023-04-08T16:25:35.651Z,21.10
2023-04-08T16:28:03.892Z,34.70
2023-04-08T16:30:31.775Z,28.70
2023-04-08T16:32:59.729Z,21.20
2023-04-08T16:35:27.693Z,20.60
2023-04-08T16:37:55.691Z,27.90
2023-04-08T16:40:23.641Z,25.50
2023-04-08T16:42:52.343Z,23.20
2023-04-08T16:45:20.335Z,21.60
2023-04-08T16:47:48.252Z,17.20
2023-04-08T16:50:16.299Z,15.60
2023-04-08T16:52:49.433Z,14.30
2023-04-08T16:55:18.176Z,15.50
2023-04-08T16:57:46.315Z,15.20
2023-04-08T17:00:16.034Z,16.00
2023-04-08T17:02:45.015Z,16.60
2023-04-08T17:05:12.974Z,15.50
2023-04-08T17:07:41.089Z,16.10
2023-04-08T17:10:09.911Z,17.10
2023-04-08T17:12:37.862Z,18.30
2023-04-08T17:15:06.549Z,19.40
2023-04-08T17:17:34.473Z,23.20
2023-04-08T17:20:02.935Z,28.10
2023-04-08T17:22:31.161Z,34.00
2023-04-08T17:24:59.134Z,45.80
2023-04-08T17:27:27.262Z,48.10
2023-04-08T17:29:57.850Z,43.70
2023-04-08T17:32:26.411Z,40.10
2023-04-08T17:34:54.634Z,39.90
2023-04-08T17:37:22.575Z,43.40
2023-04-08T17:39:51.647Z,45.20
2023-04-08T17:42:22.481Z,42.80
2023-04-08T17:44:50.456Z,48.70
2023-04-08T17:47:18.690Z,56.50
2023-04-08T17:49:46.973Z,58.80
2023-04-08T17:52:14.852Z,55.90
2023-04-08T17:54:43.070Z,46.90
2023-04-08T17:57:11.067Z,45.30
2023-04-08T17:59:38.942Z,43.30
2023-04-08T18:02:06.794Z,35.20
2023-04-08T18:04:34.859Z,32.90
2023-04-08T18:07:05.350Z,32.50
2023-04-08T18:09:33.337Z,32.80
2023-04-08T18:12:01.310Z,30.90
2023-04-08T18:14:30.136Z,32.70
2023-04-08T18:16:58.358Z,33.90
2023-04-08T18:19:26.699Z,35.10
2023-04-08T18:21:55.487Z,36.70
2023-04-08T18:24:24.374Z,36.40
2023-04-08T18:27:01.408Z,30.30
2023-04-08T18:29:29.834Z,42.80
2023-04-08T18:31:58.535Z,37.80
2023-04-08T18:34:26.812Z,35.90
2023-04-08T18:36:54.713Z,34.70
2023-04-08T18:39:22.656Z,35.70
2023-04-08T18:41:50.540Z,38.90
2023-04-08T18:44:18.632Z,37.70
2023-04-08T18:46:46.481Z,34.50
2023-04-08T18:49:14.309Z,40.30
2023-04-08T18:51:46.366Z,44.10
2023-04-08T18:54:27.496Z,44.80
2023-04-08T18:56:55.403Z,41.90
2023-04-08T18:59:23.734Z,41.30
2023-04-08T19:01:51.804Z,37.00
2023-04-08T19:04:22.679Z,37.00
2023-04-08T19:06:51.625Z,38.10
2023-04-08T19:09:22.625Z,41.00
2023-04-08T19:11:50.813Z,35.60
2023-04-08T19:14:18.784Z,32.50
2023-04-08T19:16:46.609Z,32.00
2023-04-08T19:19:14.628Z,32.40
2023-04-08T19:21:53.499Z,33.40
2023-04-08T19:24:22.106Z,34.10
2023-04-08T19:26:53.193Z,31.80
2023-04-08T19:29:23.393Z,31.30
2023-04-08T19:31:51.430Z,25.10
2023-04-08T19:34:34.962Z,26.40
2023-04-08T19:37:06.849Z,26.30
2023-04-08T19:39:34.959Z,27.10
2023-04-08T19:42:03.071Z,28.50
2023-04-08T19:44:34.927Z,30.30
2023-04-08T19:47:07.787Z,37.00
2023-04-08T19:52:04.168Z,32.10
2023-04-08T19:54:32.555Z,32.20
2023-04-08T19:57:00.757Z,28.40
2023-04-08T19:59:28.868Z,25.60
2023-04-08T20:01:57.070Z,27.30
2023-04-08T20:04:25.561Z,28.20
2023-04-08T20:06:53.403Z,28.60
2023-04-08T20:09:21.220Z,53.10
2023-04-08T20:11:49.069Z,54.40
2023-04-08T20:14:17.260Z,42.50
2023-04-08T20:16:45.182Z,43.40
2023-04-08T20:19:12.982Z,43.20
2023-04-08T20:21:41.821Z,37.20
2023-04-08T20:24:09.758Z,42.50
2023-04-08T20:26:37.609Z,41.80
2023-04-08T20:29:05.928Z,38.60
2023-04-08T20:31:33.839Z,38.90
2023-04-08T20:34:03.412Z,36.20
2023-04-08T20:36:32.815Z,37.40
2023-04-08T20:39:00.718Z,35.60
2023-04-08T20:41:28.653Z,33.90
2023-04-08T20:43:56.598Z,34.90
2023-04-08T20:46:24.628Z,32.70
2023-04-08T20:48:52.775Z,33.80
2023-04-08T20:51:21.480Z,32.80
2023-04-08T20:53:49.473Z,35.00
2023-04-08T20:56:17.631Z,36.40
2023-04-08T20:58:45.512Z,36.20
2023-04-08T21:01:13.517Z,39.00
2023-04-08T21:03:41.572Z,34.40
2023-04-08T21:06:19.418Z,37.60
2023-04-08T21:08:48.104Z,40.40
2023-04-08T21:11:16.765Z,43.40
2023-04-08T21:13:46.578Z,52.80
2023-04-08T21:16:16.591Z,48.20
2023-04-08T21:18:44.473Z,42.10
2023-04-08T21:21:12.427Z,40.10
2023-04-08T21:23:40.519Z,40.60
2023-04-08T21:26:15.585Z,34.40
2023-04-08T21:28:44.143Z,33.80
2023-04-08T21:31:13.260Z,34.00
2023-04-08T21:33:41.140Z,34.00
2023-04-08T21:36:09.098Z,30.90
2023-04-08T21:38:37.140Z,31.80
2023-04-08T21:41:05.073Z,29.60
2023-04-08T21:43:33.018Z,30.90
2023-04-08T21:46:01.026Z,29.70
2023-04-08T21:48:29.134Z,29.90
2023-04-08T21:50:57.346Z,29.20
2023-04-08T21:53:25.304Z,30.00
2023-04-08T21:55:53.152Z,30.90
2023-04-08T21:58:21.286Z,29.90
2023-04-08T22:00:50.724Z,30.10
2023-04-08T22:03:18.750Z,30.80
2023-04-08T22:05:46.690Z,28.70
2023-04-08T22:08:14.823Z,30.40
2023-04-08T22:10:42.815Z,32.30
2023-04-08T22:13:10.757Z,31.30
2023-04-08T22:15:38.633Z,29.80
2023-04-08T22:18:07.087Z,28.70
2023-04-08T22:20:34.962Z,28.30
2023-04-08T22:23:02.750Z,27.00
2023-04-08T22:25:30.701Z,27.10
2023-04-08T22:27:58.615Z,26.80
2023-04-08T22:30:26.424Z,27.40
2023-04-08T22:32:54.306Z,29.50
2023-04-08T22:35:22.212Z,28.70
2023-04-08T22:37:49.988Z,28.10
2023-04-08T22:40:18.170Z,28.70
2023-04-08T22:42:45.941Z,25.80
2023-04-08T22:45:13.795Z,27.40
2023-04-08T22:47:41.649Z,27.40
2023-04-08T22:50:10.154Z,28.00
2023-04-08T22:52:37.936Z,26.50
2023-04-08T22:55:07.116Z,28.90
2023-04-08T22:57:35.138Z,27.00
2023-04-08T23:00:05.031Z,29.40
2023-04-08T23:02:32.845Z,27.70
2023-04-08T23:05:00.923Z,25.80
2023-04-08T23:07:28.885Z,27.80
2023-04-08T23:09:56.774Z,28.20
2023-04-08T23:12:24.628Z,28.90
2023-04-08T23:14:52.499Z,27.40
2023-04-08T23:17:20.415Z,28.30
2023-04-08T23:19:48.218Z,25.40
2023-04-08T23:22:16.145Z,25.70
2023-04-08T23:24:44.017Z,27.00
2023-04-08T23:27:11.908Z,27.50
2023-04-08T23:29:40.038Z,27.00
2023-04-08T23:32:07.965Z,27.40
2023-04-08T23:34:37.254Z,27.40
2023-04-08T23:37:05.041Z,26.20
2023-04-08T23:39:32.963Z,25.40
2023-04-08T23:42:01.784Z,26.60
2023-04-08T23:44:29.732Z,26.60
2023-04-08T23:46:57.578Z,26.60
2023-04-08T23:49:25.435Z,25.60
2023-04-08T23:51:53.620Z,26.50
2023-04-08T23:54:22.619Z,26.60
2023-04-08T23:56:50.716Z,26.70
2023-04-08T23:59:19.043Z,25.30
